createdAt,value
2022-09-16T00:00:59.871Z,72.16
2022-09-16T00:03:27.228Z,72.35
2022-09-16T00:05:54.453Z,72.42
2022-09-16T00:08:22.752Z,72.90
2022-09-16T00:10:50.338Z,73.06
2022-09-16T00:13:18.320Z,73.32
2022-09-16T00:15:49.081Z,73.17
2022-09-16T00:18:16.113Z,72.93
2022-09-16T00:20:52.067Z,73.21
2022-09-16T00:23:20.074Z,73.31
2022-09-16T00:25:54.864Z,73.30
2022-09-16T00:28:23.042Z,73.54
2022-09-16T00:30:50.643Z,73.46
2022-09-16T00:33:19.475Z,73.16
2022-09-16T00:35:47.549Z,73.69
2022-09-16T00:38:14.994Z,73.68
2022-09-16T00:40:49.862Z,73.97
2022-09-16T00:43:19.416Z,73.93
2022-09-16T00:45:55.663Z,73.80
2022-09-16T00:48:27.469Z,73.83
2022-09-16T00:51:00.548Z,74.02
2022-09-16T00:53:56.890Z,73.47
2022-09-16T00:56:28.180Z,73.65
2022-09-16T00:59:19.272Z,73.17
2022-09-16T01:01:48.380Z,72.73
2022-09-16T01:04:25.162Z,72.81
2022-09-16T01:06:52.262Z,72.64
2022-09-16T01:09:23.433Z,72.60
2022-09-16T01:11:50.494Z,72.20
2022-09-16T01:14:41.989Z,71.91
2022-09-16T01:17:31.420Z,72.28
2022-09-16T01:20:18.020Z,71.92
2022-09-16T01:23:25.280Z,71.92
2022-09-16T01:26:49.742Z,71.86
2022-09-16T01:29:54.090Z,71.98
2022-09-16T01:32:55.758Z,71.40
2022-09-16T01:35:35.426Z,71.31
2022-09-16T01:38:19.061Z,71.20
2022-09-16T01:40:50.503Z,70.83
2022-09-16T01:43:38.795Z,70.70
2022-09-16T01:46:23.851Z,70.35
2022-09-16T01:48:57.836Z,70.01
2022-09-16T01:51:52.006Z,70.35
2022-09-16T01:54:33.525Z,70.24
2022-09-16T01:57:07.603Z,70.58
2022-09-16T01:59:46.659Z,70.45
2022-09-16T02:02:31.845Z,70.49
2022-09-16T02:05:04.939Z,70.88
2022-09-16T02:07:37.923Z,71.01
2022-09-16T02:10:20.099Z,71.43
2022-09-16T02:12:53.714Z,72.00
2022-09-16T02:15:25.307Z,71.90
2022-09-16T02:18:02.594Z,72.29
2022-09-16T02:20:32.583Z,72.53
2022-09-16T02:23:12.130Z,72.84
2022-09-16T02:25:43.889Z,73.54
2022-09-16T02:28:17.634Z,73.29
2022-09-16T02:30:49.967Z,73.45
2022-09-16T02:33:19.885Z,73.54
2022-09-16T02:35:52.614Z,73.67
2022-09-16T02:38:34.224Z,73.98
2022-09-16T02:41:03.526Z,73.85
2022-09-16T02:43:32.519Z,73.88
2022-09-16T02:46:17.987Z,74.00
2022-09-16T02:48:59.313Z,73.99
2022-09-16T02:51:45.360Z,74.05
2022-09-16T02:54:36.508Z,74.50
2022-09-16T02:57:05.508Z,74.36
2022-09-16T02:59:33.966Z,74.29
2022-09-16T03:02:02.832Z,74.29
2022-09-16T03:04:31.395Z,74.41
2022-09-16T03:06:59.418Z,74.44
2022-09-16T03:09:29.889Z,74.83
2022-09-16T03:12:16.692Z,74.79
2022-09-16T03:15:09.785Z,75.51
2022-09-16T03:18:05.715Z,75.96
2022-09-16T03:20:46.920Z,76.05
2022-09-16T03:23:18.163Z,76.37
2022-09-16T03:26:10.010Z,76.36
2022-09-16T03:29:23.431Z,76.96
2022-09-16T03:32:21.402Z,76.73
2022-09-16T03:34:55.574Z,76.95
2022-09-16T03:37:27.390Z,76.68
2022-09-16T03:40:00.719Z,76.73
2022-09-16T03:42:29.208Z,76.93
2022-09-16T03:44:57.563Z,77.24
2022-09-16T03:47:25.812Z,77.35
2022-09-16T03:49:54.207Z,77.40
2022-09-16T03:52:24.413Z,77.42
2022-09-16T03:54:52.445Z,77.30
2022-09-16T03:57:20.790Z,77.37
2022-09-16T03:59:48.244Z,77.69
2022-09-16T04:02:16.678Z,77.98
2022-09-16T04:04:45.263Z,77.71
2022-09-16T04:07:13.456Z,77.45
2022-09-16T04:09:40.391Z,77.07
2022-09-16T04:12:07.700Z,77.12
2022-09-16T04:14:36.146Z,77.01
2022-09-16T04:17:05.180Z,77.23
2022-09-16T04:19:33.138Z,76.91
2022-09-16T04:22:01.183Z,76.92
2022-09-16T04:24:29.671Z,77.00
2022-09-16T04:26:58.099Z,77.07
2022-09-16T04:29:27.862Z,77.09
2022-09-16T04:31:56.824Z,77.03
2022-09-16T04:34:24.586Z,77.13
2022-09-16T04:36:52.225Z,77.12
2022-09-16T04:39:20.500Z,77.39
2022-09-16T04:41:48.360Z,77.33
2022-09-16T04:44:16.881Z,77.38
2022-09-16T04:46:44.013Z,77.69
2022-09-16T04:49:12.933Z,77.60
2022-09-16T04:51:41.328Z,77.72
2022-09-16T04:54:09.710Z,77.50
2022-09-16T04:56:38.031Z,77.58
2022-09-16T04:59:07.334Z,77.88
2022-09-16T05:01:38.532Z,77.64
2022-09-16T05:04:07.807Z,77.83
2022-09-16T05:06:41.136Z,78.31
2022-09-16T05:09:11.396Z,78.39
2022-09-16T05:11:40.961Z,78.78
2022-09-16T05:14:13.138Z,78.84
2022-09-16T05:16:41.722Z,78.60
2022-09-16T05:19:13.546Z,78.82
2022-09-16T05:21:42.080Z,78.92
2022-09-16T05:24:12.379Z,78.77
2022-09-16T05:26:42.411Z,79.42
2022-09-16T05:29:14.449Z,79.38
2022-09-16T05:31:44.680Z,79.66
2022-09-16T05:34:24.972Z,77.67
2022-09-16T05:36:55.693Z,74.08
2022-09-16T05:39:25.246Z,70.32
2022-09-16T05:41:59.101Z,67.31
2022-09-16T05:44:27.976Z,65.37
2022-09-16T05:46:57.118Z,64.46
2022-09-16T05:49:25.720Z,63.55
2022-09-16T05:51:54.213Z,63.56
2022-09-16T05:54:25.356Z,63.53
2022-09-16T05:56:54.698Z,64.01
2022-09-16T05:59:24.058Z,64.23
2022-09-16T06:01:52.152Z,65.21
2022-09-16T06:04:20.474Z,65.15
2022-09-16T06:06:48.878Z,65.93
2022-09-16T06:09:22.843Z,65.77
2022-09-16T06:11:55.608Z,66.27
2022-09-16T06:14:29.608Z,66.83
2022-09-16T06:16:57.234Z,67.07
2022-09-16T06:19:25.714Z,67.17
2022-09-16T06:21:54.163Z,67.47
2022-09-16T06:24:21.853Z,67.38
2022-09-16T06:26:50.336Z,67.57
2022-09-16T06:29:18.959Z,67.60
2022-09-16T06:31:47.382Z,67.16
2022-09-16T06:34:16.966Z,65.89
2022-09-16T06:36:45.783Z,66.45
2022-09-16T06:39:15.428Z,65.61
2022-09-16T06:41:43.924Z,67.06
2022-09-16T06:44:11.895Z,67.97
2022-09-16T06:46:40.110Z,67.75
2022-09-16T06:49:10.947Z,68.42
2022-09-16T06:51:39.347Z,68.06
2022-09-16T06:54:10.056Z,68.19
2022-09-16T06:56:39.770Z,67.85
2022-09-16T06:59:07.750Z,67.67
2022-09-16T07:01:36.730Z,67.45
2022-09-16T07:04:10.426Z,67.36
2022-09-16T07:07:08.287Z,67.23
2022-09-16T07:09:27.338Z,67.16
2022-09-16T07:11:55.566Z,67.06
2022-09-16T07:14:24.670Z,67.03
2022-09-16T07:16:52.742Z,66.80
2022-09-16T07:19:20.812Z,66.51
2022-09-16T07:21:48.567Z,66.46
2022-09-16T07:24:16.876Z,66.18
2022-09-16T07:26:45.950Z,64.71
2022-09-16T07:29:18.676Z,64.43
2022-09-16T07:31:46.877Z,63.33
2022-09-16T07:34:15.821Z,64.15
2022-09-16T07:36:48.415Z,63.51
2022-09-16T07:39:19.078Z,64.95
2022-09-16T07:41:48.745Z,65.99
2022-09-16T07:44:18.890Z,66.11
2022-09-16T07:46:46.312Z,64.54
2022-09-16T07:49:15.614Z,64.95
2022-09-16T07:51:43.510Z,65.41
2022-09-16T07:54:15.209Z,65.51
2022-09-16T07:56:44.411Z,65.37
2022-09-16T07:59:19.420Z,63.59
2022-09-16T08:01:49.094Z,63.92
2022-09-16T08:04:18.546Z,64.26
2022-09-16T08:06:47.321Z,63.89
2022-09-16T08:09:38.577Z,62.84
2022-09-16T08:12:05.709Z,63.86
2022-09-16T08:14:34.286Z,64.58
2022-09-16T08:17:03.982Z,64.64
2022-09-16T08:19:32.476Z,64.39
2022-09-16T08:22:00.890Z,64.49
2022-09-16T08:24:29.315Z,63.05
2022-09-16T08:26:59.345Z,62.88
2022-09-16T08:29:27.691Z,63.01
2022-09-16T08:31:55.922Z,63.16
2022-09-16T08:34:24.382Z,63.53
2022-09-16T08:36:51.648Z,64.05
2022-09-16T08:39:20.925Z,64.32
2022-09-16T08:42:23.371Z,64.48
2022-09-16T08:45:14.268Z,64.61
2022-09-16T08:47:45.994Z,63.16
2022-09-16T08:50:22.497Z,63.34
2022-09-16T08:52:52.763Z,63.48
2022-09-16T08:55:31.785Z,63.99
2022-09-16T08:58:31.404Z,63.85
2022-09-16T09:01:04.523Z,63.76
2022-09-16T09:03:36.285Z,64.00
2022-09-16T09:06:14.752Z,63.81
2022-09-16T09:09:02.724Z,63.38
2022-09-16T09:11:58.553Z,63.54
2022-09-16T09:15:00.566Z,63.67
2022-09-16T09:17:48.835Z,62.98
2022-09-16T09:20:28.441Z,61.37
2022-09-16T09:23:14.736Z,62.11
2022-09-16T09:25:49.053Z,61.50
2022-09-16T09:28:21.332Z,63.03
2022-09-16T09:31:01.612Z,63.03
2022-09-16T09:34:09.097Z,60.26
2022-09-16T09:36:46.208Z,60.49
2022-09-16T09:39:42.951Z,61.40
2022-09-16T09:42:29.435Z,60.49
2022-09-16T09:45:05.198Z,61.40
2022-09-16T09:47:41.189Z,62.30
2022-09-16T09:50:24.908Z,60.55
2022-09-16T09:53:18.875Z,60.86
2022-09-16T09:55:47.600Z,62.19
2022-09-16T09:58:21.705Z,62.34
2022-09-16T10:00:49.506Z,60.80
2022-09-16T10:03:19.442Z,58.24
2022-09-16T10:05:48.796Z,58.14
2022-09-16T10:08:22.482Z,55.76
2022-09-16T10:11:01.751Z,56.45
2022-09-16T10:13:31.242Z,55.98
2022-09-16T10:16:18.226Z,54.94
2022-09-16T10:19:07.030Z,55.78
2022-09-16T10:22:10.652Z,56.21
2022-09-16T10:24:42.125Z,56.54
2022-09-16T10:27:27.356Z,55.22
2022-09-16T10:30:29.358Z,56.90
2022-09-16T10:33:02.456Z,58.56
2022-09-16T10:35:36.305Z,59.12
2022-09-16T10:38:18.217Z,58.98
2022-09-16T10:40:55.282Z,56.31
2022-09-16T10:43:25.661Z,55.17
2022-09-16T10:45:55.949Z,54.08
2022-09-16T10:48:30.981Z,52.94
2022-09-16T10:51:02.447Z,53.03
2022-09-16T10:53:40.893Z,53.45
2022-09-16T10:56:22.027Z,53.55
2022-09-16T10:59:01.024Z,53.81
2022-09-16T11:01:54.124Z,53.66
2022-09-16T11:04:39.236Z,53.58
2022-09-16T11:07:37.493Z,53.93
2022-09-16T11:10:28.210Z,55.30
2022-09-16T11:13:11.504Z,56.60
2022-09-16T11:16:20.842Z,55.28
2022-09-16T11:19:16.795Z,55.07
2022-09-16T11:22:00.264Z,54.83
2022-09-16T11:24:43.816Z,56.31
2022-09-16T11:27:20.793Z,56.49
2022-09-16T11:30:24.289Z,55.61
2022-09-16T11:33:30.337Z,55.06
2022-09-16T11:36:11.939Z,54.57
2022-09-16T11:38:55.358Z,54.75
2022-09-16T11:41:41.223Z,54.12
2022-09-16T11:44:12.907Z,55.07
2022-09-16T11:47:14.788Z,54.13
2022-09-16T11:49:46.054Z,54.34
2022-09-16T11:52:26.525Z,54.08
2022-09-16T11:55:07.411Z,53.68
2022-09-16T11:57:44.355Z,53.26
2022-09-16T12:00:16.925Z,53.08
2022-09-16T12:03:03.936Z,53.15
2022-09-16T12:05:43.403Z,53.76
2022-09-16T12:08:27.974Z,54.08
2022-09-16T12:11:37.348Z,54.43
2022-09-16T12:14:22.778Z,54.56
2022-09-16T12:17:01.842Z,54.93
2022-09-16T12:19:42.798Z,54.46
2022-09-16T12:22:48.073Z,54.24
2022-09-16T12:25:27.305Z,53.89
2022-09-16T12:28:14.227Z,53.50
2022-09-16T12:30:47.244Z,52.82
2022-09-16T12:33:28.935Z,53.17
2022-09-16T12:36:12.632Z,53.24
2022-09-16T12:38:41.156Z,53.15
2022-09-16T12:41:20.449Z,53.97
2022-09-16T12:44:33.501Z,54.38
2022-09-16T12:47:16.084Z,55.88
2022-09-16T12:49:46.783Z,55.44
2022-09-16T12:52:37.161Z,55.12
2022-09-16T12:55:23.846Z,54.82
2022-09-16T12:58:28.279Z,52.74
2022-09-16T13:01:18.611Z,51.77
2022-09-16T13:04:03.394Z,52.00
2022-09-16T13:06:35.524Z,51.69
2022-09-16T13:09:15.561Z,52.06
2022-09-16T13:12:32.005Z,52.78
2022-09-16T13:14:48.495Z,52.27
2022-09-16T13:17:15.593Z,51.98
2022-09-16T13:19:53.187Z,52.27
2022-09-16T13:22:31.476Z,52.43
2022-09-16T13:25:14.246Z,52.56
2022-09-16T13:27:54.512Z,53.26
2022-09-16T13:30:38.218Z,53.73
2022-09-16T13:33:26.557Z,54.38
2022-09-16T13:36:25.477Z,55.20
2022-09-16T13:38:56.673Z,55.32
2022-09-16T13:41:41.730Z,55.75
2022-09-16T13:44:40.283Z,55.28
2022-09-16T13:47:30.173Z,54.52
2022-09-16T13:50:11.722Z,54.09
2022-09-16T13:52:40.624Z,54.00
2022-09-16T13:55:24.892Z,54.32
2022-09-16T13:58:15.973Z,54.31
2022-09-16T14:01:08.735Z,54.47
2022-09-16T14:04:06.505Z,54.52
2022-09-16T14:06:57.162Z,54.55
2022-09-16T14:09:46.683Z,54.27
2022-09-16T14:12:22.819Z,53.63
2022-09-16T14:14:52.084Z,52.70
2022-09-16T14:17:50.995Z,51.47
2022-09-16T14:20:23.497Z,49.75
2022-09-16T14:23:15.485Z,49.68
2022-09-16T14:25:43.604Z,47.90
2022-09-16T14:28:26.849Z,47.59
2022-09-16T14:31:08.601Z,47.96
2022-09-16T14:33:40.662Z,48.27
2022-09-16T14:36:28.514Z,48.06
2022-09-16T14:38:58.576Z,48.40
2022-09-16T14:41:48.567Z,48.12
2022-09-16T14:44:32.741Z,48.10
2022-09-16T14:47:09.316Z,48.10
2022-09-16T14:49:41.838Z,48.43
2022-09-16T14:52:22.755Z,48.52
2022-09-16T14:54:51.907Z,48.73
2022-09-16T14:57:24.483Z,48.93
2022-09-16T14:59:57.979Z,48.36
2022-09-16T15:02:37.417Z,55.44
2022-09-16T15:05:39.751Z,62.10
2022-09-16T15:08:17.968Z,64.19
2022-09-16T15:10:52.906Z,65.06
2022-09-16T15:13:28.269Z,65.37
2022-09-16T15:16:04.397Z,65.94
2022-09-16T15:18:37.896Z,65.81
2022-09-16T15:21:28.751Z,66.70
2022-09-16T15:24:00.124Z,68.31
2022-09-16T15:26:31.515Z,68.62
2022-09-16T15:29:07.408Z,69.20
2022-09-16T15:31:44.506Z,69.40
2022-09-16T15:34:27.350Z,70.04
2022-09-16T15:36:57.203Z,69.77
2022-09-16T15:39:38.736Z,70.16
2022-09-16T15:42:23.921Z,71.01
2022-09-16T15:45:01.307Z,71.70
2022-09-16T15:47:38.529Z,71.93
2022-09-16T15:50:14.285Z,72.00
2022-09-16T15:53:31.433Z,72.36
2022-09-16T15:56:22.660Z,72.93
2022-09-16T15:58:58.008Z,72.53
2022-09-16T16:01:31.023Z,73.09
2022-09-16T16:04:00.868Z,73.27
2022-09-16T16:06:50.546Z,73.64
2022-09-16T16:09:29.529Z,73.02
2022-09-16T16:11:58.146Z,72.99
2022-09-16T16:14:32.366Z,72.06
2022-09-16T16:17:21.619Z,72.08
2022-09-16T16:19:50.576Z,72.76
2022-09-16T16:22:18.163Z,71.58
2022-09-16T16:24:45.523Z,71.86
2022-09-16T16:27:12.724Z,71.65
2022-09-16T16:29:39.788Z,71.81
2022-09-16T16:32:12.359Z,71.88
2022-09-16T16:34:45.773Z,71.40
2022-09-16T16:37:33.829Z,72.25
2022-09-16T16:40:04.160Z,72.18
2022-09-16T16:42:31.607Z,72.54
2022-09-16T16:44:58.657Z,72.52
2022-09-16T16:47:26.113Z,73.36
2022-09-16T16:49:53.759Z,73.64
2022-09-16T16:52:20.813Z,73.69
2022-09-16T16:54:48.003Z,73.78
2022-09-16T16:57:15.126Z,73.95
2022-09-16T16:59:42.178Z,74.13
2022-09-16T17:02:11.610Z,73.89
2022-09-16T17:04:38.833Z,74.26
2022-09-16T17:07:25.064Z,73.84
2022-09-16T17:09:53.967Z,74.22
2022-09-16T17:12:21.075Z,74.02
2022-09-16T17:14:48.108Z,73.90
2022-09-16T17:17:15.468Z,73.90
2022-09-16T17:19:42.499Z,74.06
2022-09-16T17:22:09.716Z,74.33
2022-09-16T17:24:36.719Z,74.35
2022-09-16T17:27:04.350Z,74.19
2022-09-16T17:29:31.438Z,73.88
2022-09-16T17:32:00.807Z,74.17
2022-09-16T17:34:27.810Z,74.01
2022-09-16T17:36:54.891Z,74.00
2022-09-16T17:39:22.898Z,74.08
2022-09-16T17:41:51.178Z,74.63
2022-09-16T17:44:19.519Z,74.84
2022-09-16T17:46:47.510Z,75.02
2022-09-16T17:49:21.747Z,75.19
2022-09-16T17:51:50.646Z,75.33
2022-09-16T17:54:17.937Z,75.29
2022-09-16T17:56:45.376Z,75.85
2022-09-16T17:59:16.205Z,76.29
2022-09-16T18:01:43.667Z,75.94
2022-09-16T18:04:11.161Z,76.53
2022-09-16T18:06:45.186Z,76.55
2022-09-16T18:09:13.523Z,76.41
2022-09-16T18:11:41.206Z,76.37
2022-09-16T18:14:11.951Z,76.31
2022-09-16T18:16:39.471Z,76.16
2022-09-16T18:19:06.983Z,76.41
2022-09-16T18:21:34.615Z,76.03
2022-09-16T18:24:03.837Z,75.93
2022-09-16T18:26:32.392Z,75.76
2022-09-16T18:29:10.926Z,75.62
2022-09-16T18:31:41.781Z,75.72
2022-09-16T18:34:09.413Z,75.44
2022-09-16T18:36:37.793Z,75.37
2022-09-16T18:39:07.057Z,75.48
2022-09-16T18:41:39.951Z,75.21
2022-09-16T18:44:15.451Z,75.50
2022-09-16T18:46:43.033Z,75.26
2022-09-16T18:49:14.184Z,75.40
2022-09-16T18:51:49.845Z,75.25
2022-09-16T18:54:27.990Z,75.52
2022-09-16T18:56:57.389Z,75.31
2022-09-16T18:59:28.570Z,75.21
2022-09-16T19:02:02.683Z,75.08
2022-09-16T19:04:37.033Z,75.05
2022-09-16T19:07:07.873Z,74.89
2022-09-16T19:09:39.658Z,74.38
2022-09-16T19:12:11.118Z,74.01
2022-09-16T19:14:39.419Z,73.62
2022-09-16T19:17:06.996Z,72.92
2022-09-16T19:19:34.295Z,73.49
2022-09-16T19:22:05.651Z,73.39
2022-09-16T19:24:37.259Z,73.68
2022-09-16T19:27:05.951Z,74.04
2022-09-16T19:29:34.550Z,74.11
2022-09-16T19:32:04.174Z,74.55
2022-09-16T19:34:32.867Z,74.49
2022-09-16T19:37:00.253Z,74.75
2022-09-16T19:39:28.092Z,75.19
2022-09-16T19:41:55.582Z,75.49
2022-09-16T19:44:22.725Z,75.44
2022-09-16T19:46:49.953Z,75.55
2022-09-16T19:49:21.075Z,76.07
2022-09-16T19:51:49.338Z,76.01
2022-09-16T19:54:17.083Z,76.35
2022-09-16T19:56:49.508Z,76.45
2022-09-16T19:59:17.953Z,76.00
2022-09-16T20:01:46.002Z,76.26
2022-09-16T20:04:13.168Z,76.55
2022-09-16T20:06:42.131Z,76.39
2022-09-16T20:09:12.865Z,76.18
2022-09-16T20:11:45.487Z,76.23
2022-09-16T20:14:19.081Z,76.63
2022-09-16T20:16:47.301Z,76.92
2022-09-16T20:19:16.860Z,76.45
2022-09-16T20:21:44.632Z,76.63
2022-09-16T20:24:23.687Z,77.02
2022-09-16T20:26:53.777Z,76.85
2022-09-16T20:29:21.357Z,77.25
2022-09-16T20:31:52.287Z,76.98
2022-09-16T20:34:19.730Z,77.34
2022-09-16T20:36:47.199Z,77.24
2022-09-16T20:39:14.860Z,77.27
2022-09-16T20:41:45.641Z,77.23
2022-09-16T20:44:16.109Z,77.30
2022-09-16T20:46:43.856Z,77.26
2022-09-16T20:49:16.511Z,77.46
2022-09-16T20:51:43.928Z,77.11
2022-09-16T20:54:14.449Z,77.13
2022-09-16T20:56:46.198Z,76.66
2022-09-16T20:59:16.266Z,76.85
2022-09-16T21:01:44.089Z,76.87
2022-09-16T21:04:18.908Z,77.52
2022-09-16T21:06:46.719Z,77.14
2022-09-16T21:09:15.783Z,77.11
2022-09-16T21:11:46.120Z,77.37
2022-09-16T21:14:16.493Z,77.94
2022-09-16T21:16:46.959Z,77.87
2022-09-16T21:19:15.049Z,77.92
2022-09-16T21:21:45.794Z,77.89
2022-09-16T21:24:13.425Z,77.75
2022-09-16T21:26:41.386Z,77.72
2022-09-16T21:29:20.885Z,77.70
2022-09-16T21:31:48.813Z,77.82
2022-09-16T21:34:19.916Z,77.81
2022-09-16T21:36:47.974Z,77.67
2022-09-16T21:39:17.146Z,77.98
2022-09-16T21:41:46.087Z,77.64
2022-09-16T21:44:14.567Z,78.08
2022-09-16T21:46:45.415Z,77.86
2022-09-16T21:49:29.121Z,78.01
2022-09-16T21:51:58.546Z,78.06
2022-09-16T21:54:26.585Z,78.03
2022-09-16T21:56:53.607Z,78.12
2022-09-16T21:59:20.842Z,78.30
2022-09-16T22:01:50.357Z,78.42
2022-09-16T22:04:21.423Z,78.13
2022-09-16T22:06:50.073Z,78.18
2022-09-16T22:09:17.693Z,78.15
2022-09-16T22:11:44.733Z,78.44
2022-09-16T22:14:12.112Z,78.22
2022-09-16T22:16:40.212Z,78.36
2022-09-16T22:19:11.401Z,78.08
2022-09-16T22:21:42.467Z,78.20
2022-09-16T22:24:10.992Z,78.20
2022-09-16T22:26:38.901Z,78.13
2022-09-16T22:29:06.604Z,78.15
2022-09-16T22:31:37.930Z,78.25
2022-09-16T22:34:05.583Z,78.44
2022-09-16T22:36:35.123Z,78.51
2022-09-16T22:39:07.807Z,78.56
2022-09-16T22:41:35.261Z,78.74
2022-09-16T22:44:02.869Z,78.47
2022-09-16T22:46:35.311Z,78.53
2022-09-16T22:49:02.436Z,78.53
2022-09-16T22:51:29.507Z,78.79
2022-09-16T22:53:56.804Z,78.48
2022-09-16T22:56:29.657Z,78.36
2022-09-16T22:58:58.224Z,78.22
2022-09-16T23:01:29.518Z,78.61
2022-09-16T23:04:01.028Z,78.67
2022-09-16T23:06:30.576Z,78.66
2022-09-16T23:08:58.109Z,78.71
2022-09-16T23:11:30.842Z,78.69
2022-09-16T23:13:58.752Z,78.89
2022-09-16T23:16:32.129Z,78.79
2022-09-16T23:19:02.077Z,78.88
2022-09-16T23:21:30.290Z,78.86
2022-09-16T23:24:01.834Z,78.73
2022-09-16T23:26:33.619Z,78.51
2022-09-16T23:29:03.395Z,78.48
2022-09-16T23:31:34.150Z,78.58
2022-09-16T23:34:01.839Z,78.29
2022-09-16T23:36:28.951Z,78.53
2022-09-16T23:38:56.285Z,78.83
2022-09-16T23:41:28.676Z,78.57
2022-09-16T23:43:56.723Z,79.09
2022-09-16T23:46:28.844Z,78.96
2022-09-16T23:48:56.223Z,79.38
2022-09-16T23:51:28.506Z,79.24
2022-09-16T23:53:57.371Z,79.67
2022-09-16T23:56:24.856Z,79.39
2022-09-16T23:58:52.180Z,79.89
